• Join FlightAware (Why Join?)
  • Login
  • US Flag 
02:43PM EDT


 

Airport Tracker/Info


-or-


 

Live Flight TrackerFlight Track Log ✈ UAL3767 ✈ 17-Jan-2014 ✈ KORD - KCVG

Flight Track Log - Related Links

Times and Time Zones

All times are in EST time to prevent confusion due to time zone crossing. See the UAL3767 flight status page for this flight to view local times or setup timezone preferences in your user account.

Time Position Orientation Groundspeed Altitude Reporting Facility
EST Latitude Longitude Course Direction KTS MPH feet Rate Location/Type
10:40PM 41.9667 -87.9333 146° Southeast 167 192 2,000  Level Chicago TRACON
10:40PM 41.9167 -87.9333 180° South 258 297 3,700 2,640 Climbing Chicago TRACON
10:41PM 41.8500 -87.8833 151° Southeast 274 315 7,100 3,060 Climbing Chicago TRACON
10:42PM 41.8097 -87.8472 146° Southeast 277 319 8,700 2,460 Climbing Chicago Center
10:43PM 41.7356 -87.7925 151° Southeast 299 344 11,200 2,820 Climbing Chicago Center
10:44PM 41.4831 -87.3311 143° Southeast  Level Estimated
10:44PM 41.6567 -87.7381 153° Southeast 314 361 14,500  Level Chicago Center
10:45PM 41.3836 -87.2169 146° Southeast  Level Estimated
10:45PM 41.5725 -87.6775 152° Southeast 346 398 16,200  Level Chicago Center
10:46PM 41.4811 -87.6122 152° Southeast 368 423 18,500 2,160 Climbing Chicago Center
10:47PM 41.3800 -87.5661 161° South 391 450 20,600 1,680 Climbing Chicago Center
10:48PM 41.2678 -87.5458 172° South 400 460 22,000 1,440 Climbing Chicago Center
10:49PM 41.1578 -87.4956 161° South 427 491 23,600 1,560 Climbing Chicago Center
10:50PM 41.0542 -87.4081 148° Southeast 439 505 25,200 1,500 Climbing Chicago Center
10:51PM 40.9489 -87.3183 147° Southeast 449 517 26,700 840 Climbing Chicago Center
10:52PM 40.8397 -87.2256 147° Southeast 465 535 27,000 120 Climbing Chicago Center
10:53PM 40.7242 -87.1278 147° Southeast 489 563 27,000 -120 Level Chicago Center
10:54PM 40.5936 -87.0169 147° Southeast 491 565 26,800 -660 Descending Chicago Center
10:55PM 40.4825 -86.9239 147° Southeast 480 552 25,700 -1,080 Descending Chicago Center
10:56PM 40.3731 -86.8311 147° Southeast 472 543 24,700 -840 Descending Chicago Center
10:57PM 40.2639 -86.7397 147° Southeast 468 539 24,000 -360 Descending Chicago Center
10:58PM 40.1592 -86.6531 148° Southeast 448 516 24,000  Level Chicago Center
10:59PM 40.0539 -86.5653 147° Southeast 447 514 24,000  Level Indianapolis Center
11:00PM 39.9461 -86.4761 148° Southeast 456 525 24,000 -960 Level Indianapolis Center
11:01PM 39.8406 -86.3881 147° Southeast 457 526 22,100 -1,920 Descending Indianapolis Center
11:02PM 39.7786 -86.2600 122° Southeast 436 502 20,100 -2,040 Descending Indianapolis Center
11:03PM 39.7331 -86.1217 113° Southeast 406 467 18,000 -1,980 Descending Indianapolis Center
11:04PM 39.6903 -85.9947 114° Southeast 387 445 16,100 -1,800 Descending Indianapolis Center
11:05PM 39.6469 -85.8683 114° Southeast 384 442 14,400 -1,620 Descending Indianapolis Center
11:06PM 39.6033 -85.7400 114° Southeast 390 449 12,900 -1,500 Descending Indianapolis Center
11:07PM 39.5600 -85.6136 114° Southeast 386 444 11,400 -960 Descending Indianapolis Center
11:08PM 39.5186 -85.4914 114° Southeast 376 433 11,000 -300 Descending Indianapolis Center
11:09PM 39.4606 -85.3856 125° Southeast 364 419 10,900 -660 Descending Indianapolis Center
11:10PM 39.3825 -85.2953 138° Southeast 315 362 9,700 -1,140 Descending Indianapolis Center
11:12PM 39.3225 -85.2250 138° Southeast 299 344 8,700 -1,020 Descending Indianapolis Center
11:13PM 39.2628 -85.1542 137° Southeast 293 337 7,700 -1,020 Descending Indianapolis Center
11:14PM 39.2047 -85.0886 139° Southeast 284 327 6,700 -1,020 Descending Indianapolis Center
11:15PM 39.1500 -85.0217 136° Southeast 276 318 5,700 -840 Descending Indianapolis Center
11:16PM 39.0958 -84.9586 138° Southeast 267 307 5,000 -720 Descending Indianapolis Center
11:17PM 39.0400 -84.8714 129° Southeast 273 314 4,300 -1,200 Descending Indianapolis Center
11:17PM 39.0500 -84.8000 80° East 247 284 2,900 -1,620 Descending Cincinnati TRACON
11:18PM 39.0500 -84.7333 90° East 182 209 1,500 -1,440 Descending Cincinnati TRACON